Time;durP1;ratioP1;P1;durP2;ratioP2;P2;SDS_P1;SDS_P2;PMS_P1;PMS_P2;Temp;Humidity;BMP_temperature;BMP_pressure;BME280_temperature;BME280_humidity;BME280_pressure;Samples;Min_cycle;Max_cycle;Signal;HPM_P1;HPM_P2
2022/08/27 00:00:16;;;;;;;13.02;8.20;;;22.00;99.90;;;;;;5072197;28;21003;-80
2022/08/27 00:02:43;;;;;;;12.80;8.18;;;22.00;99.90;;;;;;5073310;28;20175;-80
2022/08/27 00:05:11;;;;;;;12.33;8.10;;;22.00;99.90;;;;;;5072055;28;20635;-81
2022/08/27 00:07:37;;;;;;;13.83;7.93;;;21.90;99.90;;;;;;5073310;28;20225;-81
2022/08/27 00:10:06;;;;;;;12.68;8.00;;;21.90;99.90;;;;;;5073104;28;20713;-80
2022/08/27 00:12:33;;;;;;;11.03;7.70;;;21.90;99.90;;;;;;5076002;28;20171;-81
2022/08/27 00:14:59;;;;;;;11.83;7.67;;;21.80;99.90;;;;;;5083564;28;20171;-80
2022/08/27 00:17:25;;;;;;;8.40;7.50;;;21.80;99.90;;;;;;5073902;28;20171;-80
2022/08/27 00:19:51;;;;;;;13.93;7.93;;;21.70;99.90;;;;;;5073926;28;20235;-80
2022/08/27 00:22:17;;;;;;;13.23;8.73;;;21.80;99.90;;;;;;5071145;28;20229;-80
2022/08/27 00:24:42;;;;;;;10.67;8.23;;;21.80;99.90;;;;;;5073438;28;20179;-81
2022/08/27 00:27:08;;;;;;;11.97;8.37;;;21.80;99.90;;;;;;5072767;28;20179;-80
2022/08/27 00:29:34;;;;;;;9.80;8.80;;;21.70;99.90;;;;;;5072688;28;20218;-80
2022/08/27 00:31:59;;;;;;;9.43;7.60;;;21.70;99.90;;;;;;5072525;28;20225;-82
2022/08/27 00:34:26;;;;;;;12.97;7.70;;;21.70;99.90;;;;;;5072192;28;20630;-80
2022/08/27 00:36:52;;;;;;;10.67;8.20;;;21.60;99.90;;;;;;5073117;28;20175;-81
2022/08/27 00:39:19;;;;;;;11.47;8.07;;;21.70;99.90;;;;;;5072735;28;20206;-80
2022/08/27 00:41:45;;;;;;;17.07;8.73;;;21.70;99.90;;;;;;5072470;28;20605;-80
2022/08/27 00:44:12;;;;;;;15.65;8.40;;;21.70;99.90;;;;;;5070945;28;20175;-80
2022/08/27 00:46:54;;;;;;;14.03;8.50;;;21.70;99.90;;;;;;5072384;28;20175;-80
2022/08/27 00:49:48;;;;;;;14.33;8.00;;;21.70;99.90;;;;;;5071851;28;20179;-80
2022/08/27 00:52:29;;;;;;;12.10;8.07;;;21.70;99.90;;;;;;5070595;28;20198;-80
2022/08/27 00:55:07;;;;;;;14.27;8.77;;;21.70;99.90;;;;;;5072509;28;20254;-80
2022/08/27 00:57:37;;;;;;;10.50;8.57;;;21.70;99.90;;;;;;5072590;28;20222;-81
2022/08/27 01:00:07;;;;;;;9.17;8.07;;;21.60;99.90;;;;;;5072908;28;20207;-81
2022/08/27 01:02:34;;;;;;;14.97;8.87;;;21.60;99.90;;;;;;5072795;28;20258;-80
2022/08/27 01:05:08;;;;;;;14.80;8.57;;;21.60;99.90;;;;;;5071761;28;20506;-80
2022/08/27 01:07:38;;;;;;;14.47;8.70;;;21.60;99.90;;;;;;5071695;28;20501;-80
2022/08/27 01:10:07;;;;;;;13.93;8.47;;;21.60;99.90;;;;;;5072007;28;20290;-81
2022/08/27 01:12:34;;;;;;;12.40;8.00;;;21.60;99.90;;;;;;5072140;28;20210;-81
2022/08/27 01:15:04;;;;;;;12.13;8.23;;;21.60;99.90;;;;;;5072088;28;20179;-80
2022/08/27 01:17:31;;;;;;;13.83;8.60;;;21.60;99.90;;;;;;5072422;28;20204;-82
2022/08/27 01:20:02;;;;;;;12.53;8.43;;;21.60;99.90;;;;;;5071806;28;20215;-80
2022/08/27 01:22:42;;;;;;;15.93;8.50;;;21.60;99.90;;;;;;5071934;28;20163;-80
2022/08/27 01:25:12;;;;;;;16.77;8.70;;;21.60;99.90;;;;;;5072165;28;20635;-80
2022/08/27 01:27:40;;;;;;;14.50;8.23;;;21.50;99.90;;;;;;5071902;28;20198;-80
2022/08/27 01:30:07;;;;;;;9.10;8.20;;;21.50;99.90;;;;;;5071881;28;20171;-80
2022/08/27 01:32:34;;;;;;;15.20;8.17;;;21.40;99.90;;;;;;5071598;28;20305;-80
2022/08/27 01:35:02;;;;;;;10.57;8.13;;;21.40;99.90;;;;;;5071668;28;20202;-80
2022/08/27 01:37:28;;;;;;;12.63;8.20;;;21.40;99.90;;;;;;5071753;28;20172;-80
2022/08/27 01:39:57;;;;;;;11.03;8.90;;;21.40;99.90;;;;;;5071353;28;20202;-81
2022/08/27 01:42:39;;;;;;;11.97;8.43;;;21.30;99.90;;;;;;5071368;28;20167;-80
2022/08/27 01:45:14;;;;;;;9.43;8.33;;;21.30;99.90;;;;;;5071699;28;20167;-80
2022/08/27 01:47:41;;;;;;;12.50;8.60;;;21.30;99.90;;;;;;5069787;28;20171;-80
2022/08/27 01:50:14;;;;;;;11.73;8.53;;;21.20;99.90;;;;;;5069424;28;20182;-80
2022/08/27 01:52:39;;;;;;;12.93;8.90;;;21.30;99.90;;;;;;5070676;28;20592;-81
2022/08/27 01:55:08;;;;;;;12.83;8.63;;;21.20;99.90;;;;;;5071632;28;20171;-80
2022/08/27 01:57:34;;;;;;;9.10;8.00;;;21.20;99.90;;;;;;5078443;28;20298;-81
2022/08/27 02:00:05;;;;;;;14.97;9.03;;;21.20;99.90;;;;;;5072794;28;20218;-81
2022/08/27 02:02:31;;;;;;;11.07;8.50;;;21.20;99.90;;;;;;5070932;28;20254;-81
2022/08/27 02:04:57;;;;;;;14.43;8.17;;;21.20;99.90;;;;;;5071207;28;20336;-81
2022/08/27 02:07:23;;;;;;;13.13;8.50;;;21.10;99.90;;;;;;5071098;28;20250;-81
2022/08/27 02:09:49;;;;;;;11.67;8.80;;;21.10;99.90;;;;;;5071001;28;20258;-81
2022/08/27 02:12:14;;;;;;;10.07;8.60;;;21.10;99.90;;;;;;5071071;28;20232;-80
2022/08/27 02:14:40;;;;;;;11.07;8.30;;;21.20;99.90;;;;;;5071253;28;20554;-80
2022/08/27 02:17:06;;;;;;;10.70;8.20;;;21.20;99.90;;;;;;5070715;28;20184;-80
2022/08/27 02:19:32;;;;;;;10.87;8.23;;;21.20;99.90;;;;;;5070919;28;20297;-80
2022/08/27 02:21:59;;;;;;;9.60;8.70;;;21.20;99.90;;;;;;5070520;28;20649;-80
2022/08/27 02:24:27;;;;;;;10.97;8.70;;;21.20;99.90;;;;;;5071296;28;20168;-80
2022/08/27 02:26:54;;;;;;;10.57;8.40;;;21.20;99.90;;;;;;5071142;28;20174;-80
2022/08/27 02:29:20;;;;;;;11.87;8.20;;;21.20;99.90;;;;;;5071060;28;20175;-80
2022/08/27 02:31:46;;;;;;;13.13;8.53;;;21.20;99.90;;;;;;5070833;28;20598;-80
2022/08/27 02:34:11;;;;;;;12.90;8.47;;;21.20;99.90;;;;;;5071029;28;20263;-79
2022/08/27 02:36:37;;;;;;;10.60;8.30;;;21.20;99.90;;;;;;5070741;28;20179;-81
2022/08/27 02:39:04;;;;;;;9.73;8.53;;;21.20;99.90;;;;;;5069397;28;20206;-81
2022/08/27 02:41:30;;;;;;;9.90;8.47;;;21.20;99.90;;;;;;5070544;28;20186;-80
2022/08/27 02:43:56;;;;;;;10.20;8.00;;;21.20;99.90;;;;;;5070887;28;20171;-80
2022/08/27 02:46:21;;;;;;;9.47;8.13;;;21.20;99.90;;;;;;5071419;28;20186;-81
2022/08/27 02:48:47;;;;;;;12.50;9.00;;;21.20;99.90;;;;;;5070861;28;20180;-79
2022/08/27 02:51:13;;;;;;;12.33;8.90;;;21.20;99.90;;;;;;5070960;28;20635;-80
2022/08/27 02:53:39;;;;;;;13.63;8.13;;;21.20;99.90;;;;;;5070717;28;20182;-81
2022/08/27 02:56:05;;;;;;;12.83;8.00;;;21.10;99.90;;;;;;5071145;28;20179;-80
2022/08/27 02:58:32;;;;;;;12.73;8.40;;;21.10;99.90;;;;;;5070908;28;20223;-80
2022/08/27 03:01:00;;;;;;;8.97;8.17;;;21.10;99.90;;;;;;5070799;28;20231;-80
2022/08/27 03:03:27;;;;;;;12.00;8.10;;;21.10;99.90;;;;;;5070730;28;20272;-80
2022/08/27 03:05:53;;;;;;;13.57;7.87;;;21.10;99.90;;;;;;5070554;28;20175;-81
2022/08/27 03:08:18;;;;;;;12.47;8.00;;;21.10;99.90;;;;;;5070638;28;20168;-80
2022/08/27 03:10:44;;;;;;;10.27;8.27;;;21.10;99.90;;;;;;5070379;28;20182;-81
2022/08/27 03:13:10;;;;;;;10.30;8.50;;;21.10;99.90;;;;;;5069876;28;20209;-81
2022/08/27 03:15:36;;;;;;;10.10;8.10;;;21.10;99.90;;;;;;5073992;28;20222;-80
2022/08/27 03:18:17;;;;;;;10.27;8.33;;;21.10;99.90;;;;;;5074114;28;20171;-80
2022/08/27 03:20:45;;;;;;;10.93;8.30;;;21.10;99.90;;;;;;5073877;28;20203;-80
2022/08/27 03:23:13;;;;;;;14.33;8.30;;;21.10;99.90;;;;;;5072416;28;20167;-80
2022/08/27 03:25:43;;;;;;;10.17;8.30;;;21.10;99.90;;;;;;5072994;28;20187;-81
2022/08/27 03:28:09;;;;;;;8.87;7.80;;;21.10;99.90;;;;;;5074132;28;20164;-81
2022/08/27 03:30:35;;;;;;;14.80;7.67;;;21.10;99.90;;;;;;5073966;28;20603;-81
2022/08/27 03:33:00;;;;;;;11.23;7.70;;;21.10;99.90;;;;;;5073928;28;20202;-80
2022/08/27 03:35:26;;;;;;;15.43;9.10;;;21.10;99.90;;;;;;5074142;28;20686;-80
2022/08/27 03:37:52;;;;;;;11.33;7.40;;;21.10;99.90;;;;;;5075880;28;20243;-82
2022/08/27 03:40:18;;;;;;;10.60;8.30;;;21.10;99.90;;;;;;5082402;28;20202;-80
2022/08/27 03:42:44;;;;;;;10.97;7.63;;;21.00;99.90;;;;;;5078174;28;20182;-81
2022/08/27 03:45:11;;;;;;;19.07;8.20;;;20.90;99.90;;;;;;5074292;28;20183;-81
2022/08/27 03:47:37;;;;;;;9.10;8.13;;;20.90;99.90;;;;;;5074312;28;20171;-80
2022/08/27 03:50:05;;;;;;;11.27;7.93;;;20.90;99.90;;;;;;5074058;28;20179;-81
2022/08/27 03:52:33;;;;;;;9.77;8.37;;;20.90;99.90;;;;;;5071605;28;20171;-81
2022/08/27 03:55:00;;;;;;;12.10;8.80;;;20.80;99.90;;;;;;5071907;28;20182;-81
2022/08/27 03:57:26;;;;;;;10.23;8.20;;;20.80;99.90;;;;;;5073146;28;20307;-81
2022/08/27 03:59:51;;;;;;;9.27;8.17;;;20.90;99.90;;;;;;5073056;28;20294;-81
2022/08/27 04:02:17;;;;;;;12.00;8.50;;;20.80;99.90;;;;;;5073045;28;20602;-81
2022/08/27 04:04:43;;;;;;;13.30;8.60;;;20.80;99.90;;;;;;5073071;28;20745;-81
2022/08/27 04:07:09;;;;;;;9.63;8.70;;;20.80;99.90;;;;;;5072990;28;20186;-79
2022/08/27 04:09:35;;;;;;;10.53;8.40;;;20.80;99.90;;;;;;5072947;28;20183;-82
2022/08/27 04:12:01;;;;;;;13.40;8.97;;;20.80;99.90;;;;;;5072920;28;20692;-80
2022/08/27 04:14:27;;;;;;;10.70;8.83;;;20.80;99.90;;;;;;5072936;28;20225;-81
2022/08/27 04:16:54;;;;;;;9.10;8.03;;;20.80;99.90;;;;;;5072569;28;20676;-81
2022/08/27 04:19:21;;;;;;;13.53;8.33;;;20.80;99.90;;;;;;5072503;28;20225;-80
2022/08/27 04:21:46;;;;;;;11.50;8.57;;;20.80;99.90;;;;;;5072730;28;20282;-80
2022/08/27 04:24:12;;;;;;;11.30;8.90;;;20.80;99.90;;;;;;5072292;28;20646;-80
2022/08/27 04:26:39;;;;;;;8.47;7.63;;;20.80;99.90;;;;;;5072328;28;20175;-79
2022/08/27 04:29:06;;;;;;;10.23;8.13;;;20.80;99.90;;;;;;5072883;28;20175;-80
2022/08/27 04:31:31;;;;;;;15.20;8.50;;;20.80;99.90;;;;;;5075175;28;20182;-80
2022/08/27 04:33:57;;;;;;;10.40;8.37;;;20.90;99.90;;;;;;5073081;28;20250;-80
2022/08/27 04:36:23;;;;;;;11.37;7.90;;;20.80;99.90;;;;;;5073217;28;20334;-81
2022/08/27 04:38:49;;;;;;;11.97;8.23;;;20.80;99.90;;;;;;5072604;28;20275;-81
2022/08/27 04:41:18;;;;;;;9.40;7.70;;;20.80;99.90;;;;;;5072848;28;20194;-80
2022/08/27 04:43:45;;;;;;;10.07;8.37;;;20.80;99.90;;;;;;5072345;28;20168;-80
2022/08/27 04:46:11;;;;;;;13.37;8.90;;;20.80;99.90;;;;;;5072399;28;20521;-80
2022/08/27 04:48:37;;;;;;;8.77;7.87;;;20.80;99.90;;;;;;5072199;28;20179;-80
2022/08/27 04:51:03;;;;;;;12.77;8.23;;;20.90;99.90;;;;;;5072201;28;20182;-83
2022/08/27 04:53:29;;;;;;;12.33;8.27;;;20.80;99.90;;;;;;5071931;28;20239;-83
2022/08/27 04:55:56;;;;;;;13.03;8.40;;;20.90;99.90;;;;;;5072109;28;20175;-81
2022/08/27 04:58:23;;;;;;;11.40;8.60;;;21.00;99.90;;;;;;5071729;28;20315;-81
2022/08/27 05:00:52;;;;;;;11.03;8.37;;;21.10;99.90;;;;;;5072171;28;20284;-81
2022/08/27 05:03:23;;;;;;;15.73;8.90;;;21.10;99.90;;;;;;5072171;28;20903;-81
2022/08/27 05:05:50;;;;;;;8.73;7.77;;;21.10;99.90;;;;;;5072184;28;20172;-82
2022/08/27 05:08:16;;;;;;;10.00;8.13;;;21.10;99.90;;;;;;5071856;28;20181;-81
2022/08/27 05:10:46;;;;;;;9.63;8.00;;;21.10;99.90;;;;;;5071814;28;20186;-81
2022/08/27 05:13:11;;;;;;;8.30;7.40;;;21.10;99.90;;;;;;5071741;28;20171;-81
2022/08/27 05:15:38;;;;;;;10.67;7.80;;;21.20;99.90;;;;;;5071959;28;20283;-81
2022/08/27 05:18:05;;;;;;;10.77;8.90;;;21.20;99.90;;;;;;5071816;28;20179;-81
2022/08/27 05:20:32;;;;;;;12.37;8.50;;;21.30;99.90;;;;;;5071936;28;20199;-81
2022/08/27 05:22:58;;;;;;;9.10;8.03;;;21.30;99.90;;;;;;5076354;28;20170;-81
2022/08/27 05:25:25;;;;;;;11.43;8.50;;;21.30;99.90;;;;;;5078925;28;20197;-81
2022/08/27 05:27:51;;;;;;;10.30;7.90;;;21.20;99.90;;;;;;5072249;28;20220;-81
2022/08/27 05:30:16;;;;;;;9.93;7.47;;;21.20;99.90;;;;;;5071721;28;20175;-81
2022/08/27 05:32:43;;;;;;;12.13;8.13;;;21.20;99.90;;;;;;5071801;28;20186;-81
2022/08/27 05:35:09;;;;;;;10.07;7.50;;;21.20;99.90;;;;;;5071653;28;20199;-81
2022/08/27 05:37:35;;;;;;;11.10;7.47;;;21.30;99.90;;;;;;5070957;28;20289;-81
2022/08/27 05:40:03;;;;;;;8.93;7.43;;;21.30;99.90;;;;;;5071448;28;20745;-80
2022/08/27 05:42:30;;;;;;;8.50;7.73;;;21.30;99.90;;;;;;5070986;28;20654;-81
2022/08/27 05:44:57;;;;;;;8.13;7.43;;;21.40;99.90;;;;;;5071437;28;20253;-81
2022/08/27 05:47:23;;;;;;;8.73;7.87;;;21.40;99.90;;;;;;5071172;28;20171;-82
2022/08/27 05:49:53;;;;;;;8.67;7.67;;;21.40;99.90;;;;;;5069787;28;20183;-81
2022/08/27 05:52:19;;;;;;;10.50;8.03;;;21.40;99.90;;;;;;5070823;28;20175;-80
2022/08/27 05:54:44;;;;;;;8.67;7.77;;;21.50;99.90;;;;;;5070410;28;20538;-80
2022/08/27 05:57:10;;;;;;;8.37;7.47;;;21.50;99.90;;;;;;5070852;28;20314;-81
2022/08/27 06:02:21;;;;;;;8.23;7.60;;;21.70;99.90;;;;;;5071834;28;20555;-81
2022/08/27 06:04:47;;;;;;;10.23;8.23;;;21.80;99.90;;;;;;5071117;28;20175;-81
2022/08/27 06:07:13;;;;;;;8.80;7.90;;;21.90;99.90;;;;;;5072291;28;20646;-80
2022/08/27 06:09:39;;;;;;;11.20;8.87;;;22.00;99.90;;;;;;5071302;28;20163;-81
2022/08/27 06:12:06;;;;;;;13.25;8.60;;;22.10;99.90;;;;;;5071157;28;20171;-81
2022/08/27 06:14:32;;;;;;;12.70;9.70;;;22.20;99.90;;;;;;5069958;28;20179;-81
2022/08/27 06:17:01;;;;;;;11.88;8.93;;;22.30;99.90;;;;;;5072185;28;20202;-81
2022/08/27 06:19:28;;;;;;;14.87;9.67;;;22.40;99.90;;;;;;5071466;28;20266;-81
2022/08/27 06:21:53;;;;;;;15.13;10.27;;;22.40;99.90;;;;;;5071177;28;20250;-81
2022/08/27 06:24:19;;;;;;;12.90;8.10;;;22.40;99.90;;;;;;5069540;28;20270;-81
2022/08/27 06:26:45;;;;;;;9.07;7.78;;;22.40;99.90;;;;;;5070590;28;20233;-81
2022/08/27 06:29:12;;;;;;;8.35;7.55;;;22.50;99.90;;;;;;5070732;28;20179;-81
2022/08/27 06:31:38;;;;;;;11.10;7.60;;;22.50;99.90;;;;;;5070209;28;20182;-81
2022/08/27 06:34:07;;;;;;;8.10;7.35;;;22.60;99.90;;;;;;5070971;28;20175;-81
2022/08/27 06:36:37;;;;;;;9.80;7.72;;;22.70;99.90;;;;;;5071241;28;20229;-81
2022/08/27 06:39:04;;;;;;;10.27;7.78;;;22.70;99.90;;;;;;5069632;28;20175;-81
2022/08/27 06:41:31;;;;;;;9.27;7.50;;;22.80;99.90;;;;;;5070885;28;20185;-82
2022/08/27 06:43:57;;;;;;;10.18;8.02;;;22.90;99.90;;;;;;5070825;28;20163;-82
2022/08/27 06:46:25;;;;;;;10.13;7.50;;;22.80;99.90;;;;;;5070325;28;20175;-80
2022/08/27 06:48:53;;;;;;;10.98;7.88;;;22.80;99.90;;;;;;5073284;28;20179;-81
2022/08/27 06:51:25;;;;;;;8.93;7.70;;;22.90;99.90;;;;;;5075352;28;20186;-81
2022/08/27 06:53:53;;;;;;;9.43;7.63;;;22.90;99.90;;;;;;5074678;28;20537;-80
2022/08/27 06:56:19;;;;;;;8.52;7.22;;;23.00;99.90;;;;;;5074846;28;20189;-80
2022/08/27 06:58:45;;;;;;;9.05;7.28;;;23.10;99.90;;;;;;5074847;28;20272;-80
2022/08/27 07:01:21;;;;;;;9.45;7.40;;;23.20;99.90;;;;;;5074264;28;20206;-80
2022/08/27 07:03:47;;;;;;;11.70;7.40;;;23.30;99.90;;;;;;5074393;28;20151;-81
2022/08/27 07:06:15;;;;;;;8.15;7.03;;;23.30;99.90;;;;;;5082608;28;20183;-80
2022/08/27 07:08:41;;;;;;;8.00;7.20;;;23.40;99.90;;;;;;5080025;28;20171;-81
2022/08/27 07:11:10;;;;;;;10.65;7.75;;;23.50;99.90;;;;;;5075395;28;20194;-82
2022/08/27 07:13:37;;;;;;;8.43;7.30;;;23.70;99.90;;;;;;5073522;28;20171;-81
2022/08/27 07:16:05;;;;;;;10.05;7.30;;;23.70;99.90;;;;;;5073012;28;20175;-81
2022/08/27 07:18:31;;;;;;;10.48;7.53;;;23.80;99.90;;;;;;5075290;28;20183;-82
2022/08/27 07:20:57;;;;;;;10.40;7.65;;;23.90;99.90;;;;;;5073197;28;20207;-82
2022/08/27 07:23:23;;;;;;;14.50;7.60;;;24.00;99.90;;;;;;5074212;28;20171;-82
2022/08/27 07:25:49;;;;;;;11.30;7.22;;;24.00;99.90;;;;;;5073693;28;20179;-81
2022/08/27 07:28:15;;;;;;;13.30;6.50;;;24.10;99.90;;;;;;5074173;28;20193;-81
2022/08/27 07:30:41;;;;;;;10.98;7.13;;;24.20;99.90;;;;;;5073756;28;20646;-81
2022/08/27 07:33:07;;;;;;;15.25;7.05;;;24.30;99.90;;;;;;5073090;28;20222;-82
2022/08/27 07:35:34;;;;;;;10.32;6.47;;;;;;;;;;5071616;28;20687;-82
2022/08/27 07:37:59;;;;;;;14.02;7.32;;;24.60;99.90;;;;;;5072442;28;20187;-82
2022/08/27 07:40:25;;;;;;;12.45;6.85;;;24.60;99.90;;;;;;5073913;28;20207;-82
2022/08/27 07:45:44;;;;;;;13.73;6.75;;;24.80;99.90;;;;;;5074372;28;20973;-83
2022/08/27 07:48:10;;;;;;;8.13;6.28;;;24.90;99.90;;;;;;5072309;28;20178;-82
2022/08/27 07:50:35;;;;;;;7.47;6.50;;;24.90;99.90;;;;;;5072141;28;20232;-82
2022/08/27 07:53:01;;;;;;;17.48;6.78;;;25.10;99.90;;;;;;5073520;28;20171;-81
2022/08/27 07:55:27;;;;;;;13.57;7.13;;;25.20;99.90;;;;;;5073640;28;20183;-82
2022/08/27 07:57:53;;;;;;;12.13;6.50;;;25.20;99.90;;;;;;5073014;28;20219;-82
2022/08/27 08:00:20;;;;;;;9.50;6.35;;;25.30;99.90;;;;;;5071366;28;20214;-82
2022/08/27 08:02:46;;;;;;;10.25;6.78;;;25.40;99.90;;;;;;5072435;28;20182;-82
2022/08/27 08:05:13;;;;;;;12.20;6.65;;;25.50;99.90;;;;;;5073637;28;20514;-82
2022/08/27 08:07:40;;;;;;;16.80;6.63;;;25.50;99.90;;;;;;5073520;28;20642;-82
2022/08/27 08:10:08;;;;;;;12.60;6.55;;;25.50;99.90;;;;;;5074438;28;20171;-82
2022/08/27 08:12:38;;;;;;;12.55;6.88;;;25.50;99.90;;;;;;5073762;28;20224;-82
2022/08/27 08:15:08;;;;;;;7.93;7.10;;;25.60;99.90;;;;;;5073269;28;20168;-82
2022/08/27 08:17:35;;;;;;;11.68;6.63;;;25.70;99.90;;;;;;5073050;28;20175;-82
2022/08/27 08:20:02;;;;;;;12.13;6.90;;;25.80;99.90;;;;;;5073388;28;20207;-83
2022/08/27 08:22:28;;;;;;;10.75;6.53;;;25.80;99.90;;;;;;5073539;28;20232;-83
2022/08/27 08:24:54;;;;;;;11.45;6.07;;;25.90;99.90;;;;;;5073441;28;20179;-82
2022/08/27 08:27:20;;;;;;;10.05;6.40;;;26.00;99.90;;;;;;5072554;28;20190;-81
2022/08/27 08:29:47;;;;;;;13.35;7.00;;;26.00;99.90;;;;;;5073000;28;20171;-82
2022/08/27 08:32:13;;;;;;;11.98;6.53;;;26.00;99.90;;;;;;5072539;28;20172;-82
2022/08/27 08:34:39;;;;;;;8.63;6.72;;;26.10;99.90;;;;;;5072625;28;20682;-81
2022/08/27 08:37:06;;;;;;;12.38;6.60;;;26.20;99.90;;;;;;5072153;28;20316;-81
2022/08/27 08:39:33;;;;;;;14.38;6.57;;;26.30;99.90;;;;;;5072209;28;20199;-81
2022/08/27 08:42:01;;;;;;;13.75;7.13;;;26.30;99.90;;;;;;5072602;28;20175;-81
2022/08/27 08:44:45;;;;;;;9.45;6.90;;;26.30;99.90;;;;;;5072377;28;20183;-82
2022/08/27 08:47:20;;;;;;;13.57;6.45;;;26.40;99.90;;;;;;5071950;28;20520;-81
2022/08/27 08:49:50;;;;;;;8.15;6.25;;;26.40;99.90;;;;;;5080024;28;20186;-81
2022/08/27 08:52:39;;;;;;;11.43;7.03;;;26.50;99.90;;;;;;5078590;28;20191;-81
2022/08/27 08:55:26;;;;;;;20.17;8.23;;;26.50;99.90;;;;;;5071850;28;20623;-81
2022/08/27 08:58:18;;;;;;;10.25;6.53;;;26.50;99.90;;;;;;5072240;28;20237;-82
2022/08/27 09:00:49;;;;;;;11.75;6.40;;;26.60;99.90;;;;;;5072205;28;20206;-81
2022/08/27 09:03:15;;;;;;;11.38;6.28;;;26.70;99.90;;;;;;5072555;28;20152;-82
2022/08/27 09:06:10;;;;;;;10.07;6.88;;;26.70;99.90;;;;;;5071126;28;20650;-83
2022/08/27 09:08:40;;;;;;;14.05;7.03;;;26.70;99.90;;;;;;5071857;28;20195;-82
2022/08/27 09:11:30;;;;;;;8.00;6.13;;;26.80;99.90;;;;;;5070600;28;20167;-82
2022/08/27 09:14:01;;;;;;;12.77;6.88;;;27.00;99.90;;;;;;5071159;28;20179;-82
2022/08/27 09:16:28;;;;;;;11.93;6.10;;;27.10;99.90;;;;;;5071811;28;20217;-83
2022/08/27 09:18:54;;;;;;;12.18;6.78;;;27.20;99.90;;;;;;5071970;28;20182;-82
2022/08/27 09:21:48;;;;;;;9.65;6.20;;;27.30;99.90;;;;;;5072058;28;20260;-81
2022/08/27 09:24:32;;;;;;;11.68;6.68;;;27.50;99.90;;;;;;5071661;28;20258;-81
2022/08/27 09:26:57;;;;;;;12.32;6.43;;;27.60;99.90;;;;;;5070565;28;20588;-82
2022/08/27 09:29:26;;;;;;;13.65;6.60;;;27.60;99.90;;;;;;5070031;28;20282;-81
2022/08/27 09:31:57;;;;;;;14.68;6.85;;;27.60;99.90;;;;;;5071740;28;20175;-82
2022/08/27 09:34:26;;;;;;;13.32;6.97;;;27.60;99.90;;;;;;5069980;28;20232;-82
2022/08/27 09:37:03;;;;;;;16.35;7.00;;;27.70;99.90;;;;;;5070172;28;20205;-81
2022/08/27 09:39:47;;;;;;;12.55;5.97;;;27.90;99.90;;;;;;5070035;28;20203;-82
2022/08/27 09:42:39;;;;;;;10.65;6.63;;;;;;;;;;5071907;28;20175;-83
2022/08/27 09:45:18;;;;;;;12.13;6.22;;;28.30;99.90;;;;;;5067465;28;20191;-86
2022/08/27 09:47:53;;;;;;;12.45;6.15;;;28.40;99.90;;;;;;5069437;28;20257;-83
2022/08/27 09:50:30;;;;;;;12.70;6.18;;;28.50;99.90;;;;;;5071330;28;20175;-82
2022/08/27 09:52:59;;;;;;;18.23;7.57;;;28.70;99.90;;;;;;5070171;28;20167;-82
2022/08/27 09:55:29;;;;;;;11.23;6.63;;;28.90;99.90;;;;;;5071269;28;20317;-82
2022/08/27 09:57:55;;;;;;;12.80;6.00;;;29.10;99.90;;;;;;5070877;28;20219;-82
2022/08/27 10:00:35;;;;;;;13.85;6.20;;;29.30;99.20;;;;;;5071340;28;20289;-82
2022/08/27 10:03:02;;;;;;;16.85;6.35;;;29.40;99.00;;;;;;5071470;28;20166;-83
2022/08/27 10:05:53;;;;;;;14.75;5.68;;;29.50;98.80;;;;;;5071247;28;20167;-83
2022/08/27 10:08:27;;;;;;;14.65;6.22;;;29.60;98.90;;;;;;5069976;28;20171;-83
2022/08/27 10:11:13;;;;;;;11.65;5.80;;;29.70;98.80;;;;;;5070951;28;20194;-82
2022/08/27 10:14:01;;;;;;;13.85;5.78;;;29.90;98.40;;;;;;5063567;28;20639;-83
2022/08/27 10:16:46;;;;;;;12.20;5.90;;;30.20;97.60;;;;;;5071048;28;20509;-83
2022/08/27 10:19:56;;;;;;;11.48;6.35;;;30.40;97.20;;;;;;5070733;28;20159;-82
2022/08/27 10:22:51;;;;;;;9.02;6.10;;;30.40;97.20;;;;;;5069333;28;20183;-81
2022/08/27 10:25:42;;;;;;;13.82;5.60;;;30.60;97.00;;;;;;5070747;28;20179;-81
2022/08/27 10:28:35;;;;;;;15.65;5.68;;;30.60;96.40;;;;;;5069039;28;20179;-83
2022/08/27 10:31:10;;;;;;;14.40;6.40;;;30.60;96.30;;;;;;5071662;28;20175;-82
2022/08/27 10:33:51;;;;;;;12.82;5.82;;;30.70;96.30;;;;;;5078218;28;20171;-82
2022/08/27 10:36:35;;;;;;;11.98;5.82;;;30.70;96.30;;;;;;5074614;28;20182;-82
2022/08/27 10:39:13;;;;;;;8.55;5.28;;;30.70;96.00;;;;;;5071172;28;20171;-82
2022/08/27 10:41:46;;;;;;;12.55;6.38;;;30.60;96.00;;;;;;5070855;28;20258;-81
2022/08/27 10:44:56;;;;;;;9.20;5.50;;;30.60;95.00;;;;;;5070862;28;20167;-82
2022/08/27 10:47:50;;;;;;;11.48;5.80;;;30.30;95.00;;;;;;5047145;28;20632;-81
2022/08/27 10:50:39;;;;;;;7.57;4.88;;;30.20;95.40;;;;;;5070824;28;20523;-81
2022/08/27 10:53:14;;;;;;;10.88;5.60;;;30.30;95.70;;;;;;5071103;28;20534;-82
2022/08/27 10:55:50;;;;;;;9.82;6.05;;;30.40;95.80;;;;;;5070412;28;20198;-82
2022/08/27 10:58:34;;;;;;;9.30;5.32;;;30.60;95.20;;;;;;5069708;28;20230;-81
2022/08/27 11:01:05;;;;;;;11.23;6.28;;;30.60;95.00;;;;;;5070706;28;20190;-82
2022/08/27 11:03:40;;;;;;;10.32;5.60;;;30.70;95.10;;;;;;5070034;28;20191;-82
2022/08/27 11:06:35;;;;;;;17.08;5.40;;;30.70;95.10;;;;;;5069705;28;20179;-81
2022/08/27 11:09:10;;;;;;;12.40;5.43;;;30.70;95.10;;;;;;5066778;28;20187;-82
2022/08/27 11:11:45;;;;;;;12.40;5.35;;;30.70;94.00;;;;;;5070472;28;20151;-82
2022/08/27 11:14:33;;;;;;;15.23;5.18;;;30.90;93.40;;;;;;5070203;28;20159;-82
2022/08/27 11:17:08;;;;;;;14.88;4.97;;;30.90;91.70;;;;;;5069102;28;20175;-83
2022/08/27 11:19:51;;;;;;;10.77;5.35;;;31.00;91.20;;;;;;5070003;28;20221;-82
2022/08/27 11:22:24;;;;;;;9.63;4.90;;;31.10;91.90;;;;;;5068643;28;20202;-83
2022/08/27 11:25:11;;;;;;;12.10;4.78;;;31.20;92.50;;;;;;5070575;28;20155;-82
2022/08/27 11:27:39;;;;;;;12.35;4.82;;;31.10;92.20;;;;;;5069982;28;20175;-83
2022/08/27 11:30:34;;;;;;;14.93;4.93;;;31.20;92.00;;;;;;5069886;28;20172;-82
2022/08/27 11:33:26;;;;;;;11.02;4.25;;;31.10;91.50;;;;;;5027603;28;20609;-82
2022/08/27 11:36:12;;;;;;;12.63;5.15;;;31.10;91.80;;;;;;5028805;28;20180;-83
2022/08/27 11:38:47;;;;;;;11.25;6.10;;;31.10;92.40;;;;;;5030780;28;20272;-82
2022/08/27 11:41:22;;;;;;;11.35;5.35;;;31.00;92.20;;;;;;5031105;28;20211;-83
2022/08/27 11:43:48;;;;;;;13.23;4.90;;;31.00;92.20;;;;;;5031012;28;20184;-82
2022/08/27 11:46:23;;;;;;;14.25;4.95;;;30.90;92.00;;;;;;5030270;28;20193;-82
2022/08/27 11:49:02;;;;;;;16.33;5.00;;;30.70;91.80;;;;;;5030575;28;20699;-80
2022/08/27 11:51:38;;;;;;;12.18;4.82;;;30.50;92.20;;;;;;5030976;28;20594;-81
2022/08/27 11:54:20;;;;;;;10.60;5.00;;;30.30;92.60;;;;;;5031053;28;20208;-81
2022/08/27 11:56:46;;;;;;;8.02;5.32;;;30.20;93.20;;;;;;5029682;28;20842;-80
2022/08/27 11:59:17;;;;;;;18.88;5.97;;;30.10;93.80;;;;;;5030603;28;20199;-80
2022/08/27 12:01:44;;;;;;;10.60;6.07;;;30.10;95.70;;;;;;5030725;28;20173;-80
2022/08/27 12:04:24;;;;;;;11.27;6.25;;;30.00;97.40;;;;;;5030769;28;20185;-81
2022/08/27 12:07:20;;;;;;;12.18;6.20;;;29.90;98.60;;;;;;5030274;28;20655;-81
2022/08/27 12:09:46;;;;;;;13.05;5.63;;;29.90;97.80;;;;;;5051277;28;20191;-80
2022/08/27 12:12:21;;;;;;;14.65;5.90;;;30.10;97.60;;;;;;5072889;28;20175;-80
2022/08/27 12:15:03;;;;;;;9.65;5.10;;;30.10;97.50;;;;;;5073120;28;20281;-80
2022/08/27 12:18:12;;;;;;;14.85;5.57;;;30.00;96.00;;;;;;5074658;28;20166;-80
2022/08/27 12:21:05;;;;;;;9.88;5.68;;;29.80;95.30;;;;;;5075462;28;20923;-81
2022/08/27 12:24:06;;;;;;;11.27;5.57;;;29.80;94.60;;;;;;5072794;28;20167;-81
2022/08/27 12:26:41;;;;;;;11.50;5.57;;;29.80;95.50;;;;;;5072484;28;20187;-80
2022/08/27 12:29:41;;;;;;;9.77;4.95;;;29.90;94.80;;;;;;5072083;28;20197;-81
2022/08/27 12:32:21;;;;;;;13.95;5.75;;;30.00;94.20;;;;;;5071249;28;20698;-81
2022/08/27 12:35:02;;;;;;;10.18;5.65;;;30.10;94.10;;;;;;5072067;28;20164;-80
2022/08/27 12:37:33;;;;;;;16.20;5.97;;;30.10;93.80;;;;;;5072140;28;20160;-81
2022/08/27 12:40:05;;;;;;;11.98;5.50;;;30.10;94.70;;;;;;5072276;28;20206;-81
2022/08/27 12:42:31;;;;;;;13.73;5.40;;;30.10;95.50;;;;;;5071406;28;20213;-81
2022/08/27 12:44:58;;;;;;;11.27;5.57;;;30.00;95.60;;;;;;5071502;28;20171;-80
2022/08/27 12:47:24;;;;;;;13.02;5.93;;;30.10;96.00;;;;;;5071729;28;20256;-80
2022/08/27 12:49:52;;;;;;;12.63;6.97;;;30.10;95.40;;;;;;5071481;28;20182;-79
2022/08/27 12:52:36;;;;;;;10.23;5.95;;;30.30;96.30;;;;;;5072293;28;20171;-80
2022/08/27 12:55:11;;;;;;;15.82;6.57;;;30.30;97.30;;;;;;5072166;28;20235;-80
2022/08/27 12:57:55;;;;;;;22.55;6.82;;;30.40;99.80;;;;;;5071848;28;20249;-80
2022/08/27 13:00:22;;;;;;;10.07;6.25;;;30.30;99.90;;;;;;5072103;28;20210;-80
2022/08/27 13:03:01;;;;;;;11.02;6.63;;;30.10;99.90;;;;;;5070382;28;20172;-81
2022/08/27 13:05:37;;;;;;;10.40;6.03;;;29.90;99.90;;;;;;5071568;28;20246;-80